createdAt,value
2023-08-15T00:02:08.440Z,22.39
2023-08-15T00:07:11.449Z,22.33
2023-08-15T00:12:14.218Z,22.27
2023-08-15T00:17:17.034Z,22.25
2023-08-15T00:22:19.826Z,22.20
2023-08-15T00:27:22.804Z,22.07
2023-08-15T00:32:25.839Z,21.94
2023-08-15T00:37:29.032Z,21.89
2023-08-15T00:42:31.989Z,21.88
2023-08-15T00:47:35.080Z,21.87
2023-08-15T00:52:39.041Z,21.84
2023-08-15T00:57:41.778Z,21.85
2023-08-15T01:02:44.771Z,21.85
2023-08-15T01:07:48.050Z,21.80
2023-08-15T01:13:12.426Z,21.70
2023-08-15T01:18:24.561Z,21.58
2023-08-15T01:23:47.173Z,21.50
2023-08-15T01:28:50.096Z,21.45
2023-08-15T01:34:09.505Z,21.44
2023-08-15T01:39:14.600Z,21.44
2023-08-15T01:44:17.903Z,21.43
2023-08-15T01:49:20.661Z,21.43
2023-08-15T01:54:23.870Z,21.44
2023-08-15T01:59:26.608Z,21.48
2023-08-15T02:04:29.327Z,21.51
2023-08-15T02:09:32.720Z,21.51
2023-08-15T02:14:35.407Z,21.45
2023-08-15T02:19:38.183Z,21.41
2023-08-15T02:24:41.134Z,21.39
2023-08-15T02:29:43.931Z,21.35
2023-08-15T02:34:46.718Z,21.31
2023-08-15T02:39:49.821Z,21.30
2023-08-15T02:44:52.535Z,21.34
2023-08-15T02:49:55.241Z,21.37
2023-08-15T02:54:57.932Z,21.41
2023-08-15T03:00:00.926Z,21.42
2023-08-15T03:05:04.649Z,21.39
2023-08-15T03:10:07.961Z,21.34
2023-08-15T03:15:11.380Z,21.30
2023-08-15T03:20:14.881Z,21.31
2023-08-15T03:25:18.472Z,21.33
2023-08-15T03:30:21.222Z,21.34
2023-08-15T03:35:24.060Z,21.36
2023-08-15T03:40:26.792Z,21.39
2023-08-15T03:45:31.113Z,21.44
2023-08-15T03:50:35.494Z,21.48
2023-08-15T03:55:38.224Z,21.52
2023-08-15T04:00:40.913Z,21.55
2023-08-15T04:05:47.541Z,21.60
2023-08-15T04:10:50.485Z,21.66
2023-08-15T04:15:54.174Z,21.73
2023-08-15T04:20:57.110Z,21.79
2023-08-15T04:25:59.914Z,21.87
2023-08-15T04:31:02.726Z,21.92
2023-08-15T04:36:05.727Z,21.98
2023-08-15T04:41:08.524Z,22.06
2023-08-15T04:46:11.490Z,22.12
2023-08-15T04:51:14.315Z,22.19
2023-08-15T04:56:17.178Z,22.38
2023-08-15T05:01:20.420Z,22.72
2023-08-15T05:06:23.292Z,23.20
2023-08-15T05:11:26.039Z,23.59
2023-08-15T05:16:28.763Z,23.88
2023-08-15T05:21:31.824Z,24.12
2023-08-15T05:26:34.731Z,24.29
2023-08-15T05:31:37.550Z,24.44
2023-08-15T05:36:40.404Z,24.76
2023-08-15T05:41:43.083Z,25.33
2023-08-15T05:46:45.828Z,25.40
2023-08-15T05:51:48.607Z,25.40
2023-08-15T05:56:51.319Z,25.64
2023-08-15T06:01:53.989Z,25.93
2023-08-15T06:06:56.685Z,26.36
2023-08-15T06:11:59.779Z,26.87
2023-08-15T06:17:02.553Z,27.45
2023-08-15T06:22:07.669Z,27.78
2023-08-15T06:27:10.783Z,28.96
2023-08-15T06:32:27.153Z,30.34
2023-08-15T06:37:30.011Z,31.59
2023-08-15T06:42:33.003Z,32.92
2023-08-15T06:47:35.926Z,34.04
2023-08-15T06:52:39.067Z,34.80
2023-08-15T06:57:41.781Z,35.37
2023-08-15T07:02:44.574Z,36.04
2023-08-15T07:07:47.426Z,36.75
2023-08-15T07:12:50.171Z,37.37
2023-08-15T07:17:52.944Z,38.12
2023-08-15T07:22:56.557Z,38.89
2023-08-15T07:27:59.345Z,39.45
2023-08-15T07:33:03.056Z,40.15
2023-08-15T07:38:05.991Z,40.70
2023-08-15T07:43:08.690Z,41.14
2023-08-15T07:48:11.478Z,41.90
2023-08-15T07:53:14.486Z,42.31
2023-08-15T07:58:17.303Z,42.35
2023-08-15T08:03:20.311Z,42.30
2023-08-15T08:08:23.677Z,42.39
2023-08-15T08:13:29.861Z,42.42
2023-08-15T08:18:35.077Z,43.15
2023-08-15T08:23:38.554Z,43.85
2023-08-15T08:28:44.262Z,44.32
2023-08-15T08:33:47.341Z,44.80
2023-08-15T08:38:52.424Z,45.37
2023-08-15T08:43:55.615Z,46.24
2023-08-15T08:49:02.150Z,47.08
2023-08-15T08:54:07.986Z,47.67
2023-08-15T08:59:13.933Z,47.76
2023-08-15T09:04:21.219Z,47.81
2023-08-15T09:09:24.498Z,48.00
2023-08-15T09:14:27.229Z,48.19
2023-08-15T09:19:29.931Z,47.85
2023-08-15T09:24:32.588Z,47.82
2023-08-15T09:29:36.413Z,47.99
2023-08-15T09:34:39.196Z,48.10
2023-08-15T09:39:42.048Z,47.81
2023-08-15T09:44:44.842Z,48.10
2023-08-15T09:49:52.547Z,48.14
2023-08-15T09:54:57.002Z,47.95
2023-08-15T09:59:59.793Z,47.61
2023-08-15T10:05:07.705Z,47.42
2023-08-15T10:10:10.714Z,47.50
2023-08-15T10:15:14.586Z,47.59
2023-08-15T10:20:22.343Z,47.69
2023-08-15T10:25:25.454Z,47.96
2023-08-15T10:30:34.943Z,47.88
2023-08-15T10:35:38.627Z,47.92
2023-08-15T10:40:44.399Z,48.08
2023-08-15T10:45:52.075Z,48.35
2023-08-15T10:50:55.006Z,48.56
2023-08-15T10:56:03.785Z,48.37
2023-08-15T11:01:09.565Z,48.44
2023-08-15T11:06:14.444Z,48.91
2023-08-15T11:11:18.318Z,48.84
2023-08-15T11:16:24.501Z,48.50
2023-08-15T11:21:30.279Z,48.72
2023-08-15T11:26:33.954Z,48.97
2023-08-15T11:31:38.613Z,48.68
2023-08-15T11:36:42.379Z,48.23
2023-08-15T11:41:52.036Z,47.98
2023-08-15T11:47:03.446Z,48.18
2023-08-15T11:52:08.095Z,48.77
2023-08-15T11:57:11.921Z,48.93
2023-08-15T12:02:15.330Z,49.18
2023-08-15T12:07:21.056Z,49.46
2023-08-15T12:12:26.124Z,49.39
2023-08-15T12:17:31.603Z,49.63
2023-08-15T12:22:36.938Z,48.91
2023-08-15T12:27:42.057Z,46.99
2023-08-15T12:32:47.706Z,46.15
2023-08-15T12:37:52.369Z,46.16
2023-08-15T12:42:55.574Z,47.23
2023-08-15T12:48:00.801Z,47.50
2023-08-15T12:53:05.047Z,47.28
2023-08-15T12:58:09.053Z,47.10
2023-08-15T13:03:13.816Z,46.82
2023-08-15T13:08:20.574Z,46.74
2023-08-15T13:13:24.918Z,46.42
2023-08-15T13:18:28.755Z,46.09
2023-08-15T13:23:35.814Z,45.65
2023-08-15T13:28:38.896Z,45.35
2023-08-15T13:33:44.250Z,45.25
2023-08-15T13:38:48.121Z,45.01
2023-08-15T13:43:53.568Z,44.83
2023-08-15T13:48:57.207Z,44.34
2023-08-15T13:54:01.946Z,44.08
2023-08-15T13:59:09.171Z,44.02
2023-08-15T14:04:13.072Z,43.76
2023-08-15T14:09:16.371Z,43.49
2023-08-15T14:14:19.640Z,43.48
2023-08-15T14:19:22.713Z,43.28
2023-08-15T14:24:26.177Z,42.95
2023-08-15T14:29:29.269Z,42.70
2023-08-15T14:34:32.841Z,42.50
2023-08-15T14:39:37.553Z,42.44
2023-08-15T14:44:48.405Z,42.03
2023-08-15T14:49:52.017Z,41.45
2023-08-15T14:54:56.509Z,40.89
2023-08-15T15:00:00.592Z,40.53
2023-08-15T15:05:06.421Z,40.24
2023-08-15T15:10:10.756Z,40.04
2023-08-15T15:15:14.697Z,39.89
2023-08-15T15:20:19.448Z,39.73
2023-08-15T15:25:22.642Z,39.52
2023-08-15T15:30:26.953Z,39.22
2023-08-15T15:35:30.130Z,38.82
2023-08-15T15:40:34.385Z,38.20
2023-08-15T15:45:37.919Z,37.71
2023-08-15T15:50:41.205Z,37.28
2023-08-15T15:55:44.797Z,36.79
2023-08-15T16:00:48.138Z,36.37
2023-08-15T16:05:51.491Z,36.05
2023-08-15T16:10:56.496Z,35.77
2023-08-15T16:15:59.342Z,35.52
2023-08-15T16:21:02.337Z,35.34
2023-08-15T16:26:05.103Z,35.18
2023-08-15T16:31:08.667Z,35.04
2023-08-15T16:36:11.503Z,34.89
2023-08-15T16:41:14.461Z,34.76
2023-08-15T16:46:17.296Z,34.63
2023-08-15T16:51:20.173Z,34.47
2023-08-15T16:56:23.583Z,34.31
2023-08-15T17:01:27.545Z,34.15
2023-08-15T17:06:30.536Z,33.98
2023-08-15T17:11:33.709Z,33.77
2023-08-15T17:16:36.710Z,33.55
2023-08-15T17:21:39.954Z,33.37
2023-08-15T17:26:42.768Z,33.19
2023-08-15T17:31:46.643Z,32.97
2023-08-15T17:36:49.454Z,32.75
2023-08-15T17:41:52.267Z,32.53
2023-08-15T17:46:55.134Z,32.26
2023-08-15T17:51:58.025Z,32.00
2023-08-15T17:57:01.072Z,31.74
2023-08-15T18:02:04.706Z,31.46
2023-08-15T18:07:07.422Z,31.18
2023-08-15T18:12:10.185Z,30.92
2023-08-15T18:17:13.011Z,30.64
2023-08-15T18:22:16.683Z,30.37
2023-08-15T18:27:21.022Z,30.12
2023-08-15T18:32:24.337Z,29.89
2023-08-15T18:37:27.606Z,29.68
2023-08-15T18:42:30.414Z,29.50
2023-08-15T18:47:33.444Z,29.33
2023-08-15T18:52:37.769Z,29.17
2023-08-15T18:57:41.241Z,29.02
2023-08-15T19:02:44.365Z,28.88
2023-08-15T19:07:48.119Z,28.74
2023-08-15T19:12:51.500Z,28.61
2023-08-15T19:17:54.824Z,28.49
2023-08-15T19:22:58.268Z,28.37
2023-08-15T19:28:01.366Z,28.29
2023-08-15T19:33:04.406Z,28.22
2023-08-15T19:38:07.380Z,28.14
2023-08-15T19:43:10.707Z,28.04
2023-08-15T19:48:13.990Z,27.95
2023-08-15T19:53:17.332Z,27.87
2023-08-15T19:58:20.264Z,27.78
2023-08-15T20:03:23.420Z,27.68
2023-08-15T20:08:26.352Z,27.58
2023-08-15T20:13:29.842Z,27.50
2023-08-15T20:18:32.886Z,27.40
2023-08-15T20:23:36.192Z,27.32
2023-08-15T20:28:39.319Z,27.24
2023-08-15T20:33:50.474Z,27.16
2023-08-15T20:38:54.587Z,27.08
2023-08-15T20:43:57.412Z,27.00
2023-08-15T20:49:00.457Z,26.94
2023-08-15T20:54:03.829Z,26.86
2023-08-15T20:59:07.312Z,26.77
2023-08-15T21:04:10.980Z,26.66
2023-08-15T21:09:14.370Z,26.53
2023-08-15T21:14:17.604Z,26.35
2023-08-15T21:19:21.333Z,26.19
2023-08-15T21:24:24.759Z,26.05
2023-08-15T21:29:27.656Z,25.92
2023-08-15T21:34:33.777Z,25.80
2023-08-15T21:39:37.220Z,25.71
2023-08-15T21:44:49.053Z,25.63
2023-08-15T21:49:53.665Z,25.54
2023-08-15T21:54:58.922Z,25.46
2023-08-15T22:00:04.507Z,25.40
2023-08-15T22:05:08.588Z,25.36
2023-08-15T22:10:11.540Z,25.34
2023-08-15T22:15:14.652Z,25.33
2023-08-15T22:20:17.491Z,25.29
2023-08-15T22:25:21.596Z,25.22
2023-08-15T22:30:24.554Z,25.11
2023-08-15T22:35:41.395Z,25.00
2023-08-15T22:40:44.210Z,24.88
2023-08-15T22:45:47.202Z,24.77
2023-08-15T22:50:50.030Z,24.70
2023-08-15T22:55:59.432Z,24.67
2023-08-15T23:01:02.222Z,24.64
2023-08-15T23:06:07.525Z,24.63
2023-08-15T23:11:10.288Z,24.63
2023-08-15T23:16:13.139Z,24.62
2023-08-15T23:21:16.428Z,24.62
2023-08-15T23:26:19.224Z,24.52
2023-08-15T23:31:32.846Z,24.27
2023-08-15T23:36:35.733Z,23.98
2023-08-15T23:41:38.450Z,23.68
2023-08-15T23:46:41.192Z,23.44
2023-08-15T23:51:44.505Z,23.24
2023-08-15T23:56:47.657Z,23.10
